Time;durP1;ratioP1;P1;durP2;ratioP2;P2;SDS_P1;SDS_P2;PMS_P1;PMS_P2;Temp;Humidity;BMP_temperature;BMP_pressure;BME280_temperature;BME280_humidity;BME280_pressure;Samples;Min_cycle;Max_cycle;Signal;HPM_P1;HPM_P2
2023/08/19 00:03:05;;;;;;;16.53;13.60;;;;;;;;;;10377862;28;20304;-77
2023/08/19 00:08:06;;;;;;;13.80;12.37;;;;;;;;;;10382545;28;20760;-75
2023/08/19 00:13:06;;;;;;;17.00;14.07;;;;;;;;;;10377571;28;23025;-76
2023/08/19 00:18:07;;;;;;;13.75;11.60;;;;;;;;;;10383416;28;20140;-77
2023/08/19 00:23:07;;;;;;;13.83;12.43;;;;;;;;;;10383714;28;20120;-75
2023/08/19 00:28:07;;;;;;;13.80;12.30;;;;;;;;;;10380836;28;20262;-77
2023/08/19 00:33:08;;;;;;;15.70;12.80;;;;;;;;;;10367542;28;20295;-77
2023/08/19 00:38:09;;;;;;;12.63;11.13;;;;;;;;;;10366573;28;20069;-75
2023/08/19 00:43:10;;;;;;;15.43;12.63;;;;;;;;;;10372205;28;20041;-77
2023/08/19 00:48:11;;;;;;;13.00;11.33;;;;;;;;;;10394650;28;20608;-75
2023/08/19 00:53:12;;;;;;;14.68;11.93;;;;;;;;;;10389591;28;20310;-76
2023/08/19 00:58:12;;;;;;;13.65;12.25;;;;;;;;;;10390253;28;20041;-76
2023/08/19 01:03:13;;;;;;;13.33;11.60;;;;;;;;;;10370258;28;20165;-74
2023/08/19 01:08:17;;;;;;;13.53;11.73;;;;;;;;;;10382925;28;20837;-75
2023/08/19 01:13:19;;;;;;;13.18;11.32;;;;;;;;;;10385664;28;21102;-76
2023/08/19 01:18:21;;;;;;;13.43;11.85;;;;;;;;;;10366464;28;20036;-77
2023/08/19 01:23:22;;;;;;;12.93;11.55;;;;;;;;;;10381715;28;20057;-78
2023/08/19 01:28:22;;;;;;;13.37;11.17;;;;;;;;;;10381200;28;20423;-78
2023/08/19 01:33:22;;;;;;;16.57;11.23;;;;;;;;;;10384885;28;20037;-76
2023/08/19 01:38:26;;;;;;;12.23;10.87;;;;;;;;;;10391503;28;20107;-75
2023/08/19 01:43:27;;;;;;;13.68;11.60;;;;;;;;;;10375287;28;20046;-77
2023/08/19 01:48:27;;;;;;;12.65;11.23;;;;;;;;;;10389447;28;20108;-75
2023/08/19 01:53:28;;;;;;;11.48;10.27;;;;;;;;;;10388410;28;20049;-75
2023/08/19 01:58:29;;;;;;;13.60;11.43;;;;;;;;;;10373013;28;20057;-75
2023/08/19 02:03:29;;;;;;;11.07;9.80;;;;;;;;;;10371835;28;20526;-76
2023/08/19 02:08:30;;;;;;;10.68;9.50;;;;;;;;;;10389542;28;20562;-76
2023/08/19 02:13:30;;;;;;;13.57;10.95;;;;;;;;;;10378909;28;20109;-75
2023/08/19 02:18:31;;;;;;;11.93;10.63;;;;;;;;;;10371119;28;20064;-77
2023/08/19 02:23:32;;;;;;;11.25;9.23;;;;;;;;;;10392217;28;20044;-77
2023/08/19 02:28:33;;;;;;;12.50;10.45;;;;;;;;;;10390178;28;20569;-76
2023/08/19 02:33:33;;;;;;;13.27;10.57;;;;;;;;;;10390068;28;20046;-76
2023/08/19 02:38:33;;;;;;;12.03;10.73;;;;;;;;;;10395024;28;20053;-75
2023/08/19 02:43:34;;;;;;;12.77;10.50;;;;;;;;;;10373442;28;21182;-75
2023/08/19 02:48:35;;;;;;;10.73;9.63;;;;;;;;;;10369906;28;20386;-78
2023/08/19 02:53:35;;;;;;;12.40;10.77;;;;;;;;;;10381276;28;20550;-77
2023/08/19 02:58:36;;;;;;;13.10;10.93;;;;;;;;;;10381545;28;20554;-75
2023/08/19 03:03:36;;;;;;;12.23;10.70;;;;;;;;;;10377446;28;20045;-73
2023/08/19 03:08:36;;;;;;;11.63;10.23;;;;;;;;;;10355931;28;20425;-74
2023/08/19 03:13:37;;;;;;;11.57;9.93;;;;;;;;;;10379827;28;20475;-74
2023/08/19 03:18:37;;;;;;;12.07;10.67;;;;;;;;;;10368166;28;20319;-75
2023/08/19 03:23:37;;;;;;;12.87;11.17;;;;;;;;;;10382278;28;20127;-77
2023/08/19 03:28:38;;;;;;;10.38;9.30;;;;;;;;;;10367671;28;20376;-80
2023/08/19 03:33:39;;;;;;;11.40;9.50;;;;;;;;;;10382659;28;20045;-77
2023/08/19 03:38:41;;;;;;;12.23;10.37;;;;;;;;;;10392598;28;20064;-76
2023/08/19 03:43:41;;;;;;;15.40;10.80;;;;;;;;;;10393902;28;20374;-79
2023/08/19 03:48:41;;;;;;;11.23;10.03;;;;;;;;;;10363365;28;20095;-76
2023/08/19 03:53:42;;;;;;;11.10;9.70;;;;;;;;;;10382580;28;20038;-77
2023/08/19 03:58:43;;;;;;;11.47;10.03;;;;;;;;;;10374283;28;20315;-75
2023/08/19 04:03:43;;;;;;;11.68;10.13;;;;;;;;;;10380425;28;20794;-78
2023/08/19 04:08:44;;;;;;;12.55;10.50;;;;;;;;;;10364791;28;20034;-75
2023/08/19 04:13:45;;;;;;;14.07;11.13;;;;;;;;;;10379957;28;20038;-78
2023/08/19 04:18:45;;;;;;;11.27;9.70;;;;;;;;;;10361866;28;20076;-77
2023/08/19 04:23:46;;;;;;;11.40;10.00;;;;;;;;;;10369367;28;20298;-75
2023/08/19 04:28:47;;;;;;;12.48;10.82;;;;;;;;;;10361811;28;20041;-74
2023/08/19 04:33:47;;;;;;;12.45;11.00;;;;;;;;;;10374391;28;20066;-74
2023/08/19 04:38:48;;;;;;;12.70;10.70;;;;;;;;;;10377077;28;20555;-75
2023/08/19 04:43:49;;;;;;;11.77;10.30;;;;;;;;;;10374252;28;20065;-75
2023/08/19 04:48:50;;;;;;;10.98;9.55;;;;;;;;;;10369677;28;20046;-77
2023/08/19 04:53:51;;;;;;;14.63;10.82;;;;;;;;;;10388211;28;20041;-77
2023/08/19 04:58:52;;;;;;;14.10;10.82;;;;;;;;;;10387771;28;20137;-76
2023/08/19 05:03:54;;;;;;;11.27;10.02;;;;;;;;;;10372096;28;20061;-77
2023/08/19 05:08:56;;;;;;;14.07;10.68;;;;;;;;;;10372876;28;20484;-78
2023/08/19 05:13:58;;;;;;;11.85;9.07;;;;;;;;;;10387624;28;20044;-76
2023/08/19 05:19:12;;;;;;;12.88;10.90;;;;;;;;;;10390902;28;20052;-76
2023/08/19 05:24:13;;;;;;;13.43;10.43;;;;;;;;;;10399536;28;20280;-78
2023/08/19 05:29:15;;;;;;;10.98;9.88;;;;;;;;;;10392605;28;20148;-80
2023/08/19 05:34:16;;;;;;;10.60;9.50;;;;;;;;;;10389268;28;20537;-78
2023/08/19 05:39:17;;;;;;;11.57;10.02;;;;;;;;;;10383073;28;20503;-77
2023/08/19 05:44:18;;;;;;;11.40;9.77;;;;;;;;;;10388257;28;20042;-80
2023/08/19 05:49:18;;;;;;;12.53;10.70;;;;;;;;;;10390937;28;20295;-83
2023/08/19 05:54:18;;;;;;;11.50;8.83;;;;;;;;;;10382457;28;20466;-82
2023/08/19 05:59:19;;;;;;;9.70;8.73;;;;;;;;;;10379166;28;20065;-80
2023/08/19 06:04:19;;;;;;;8.27;7.47;;;;;;;;;;10391622;28;20048;-79
2023/08/19 06:09:20;;;;;;;8.70;7.90;;;;;;;;;;10388073;28;20792;-80
2023/08/19 06:14:20;;;;;;;10.15;9.13;;;;;;;;;;10380753;28;20296;-83
2023/08/19 06:19:21;;;;;;;10.23;9.00;;;;;;;;;;10376351;28;20060;-83
2023/08/19 06:24:21;;;;;;;9.77;8.30;;;;;;;;;;10401588;28;20033;-78
2023/08/19 06:29:21;;;;;;;8.50;7.70;;;;;;;;;;10392819;28;20060;-77
2023/08/19 06:34:22;;;;;;;8.80;8.00;;;;;;;;;;10397440;28;20283;-76
2023/08/19 06:39:29;;;;;;;8.77;7.88;;;;;;;;;;10389931;28;20072;-77
2023/08/19 06:44:29;;;;;;;9.10;8.18;;;;;;;;;;10392139;28;20087;-78
2023/08/19 06:49:30;;;;;;;8.50;7.65;;;;;;;;;;10404055;28;21479;-79
2023/08/19 06:54:31;;;;;;;8.82;8.00;;;;;;;;;;10390144;28;20125;-79
2023/08/19 06:59:35;;;;;;;7.68;6.97;;;;;;;;;;10393540;28;20779;-79
2023/08/19 07:04:36;;;;;;;9.50;7.88;;;;;;;;;;10373455;28;20045;-79
2023/08/19 07:09:37;;;;;;;8.98;8.07;;;;;;;;;;10388908;28;20046;-78
2023/08/19 07:14:38;;;;;;;9.55;8.27;;;;;;;;;;10392652;28;20045;-80
2023/08/19 07:19:39;;;;;;;7.78;6.97;;;;;;;;;;10392879;28;20501;-80
2023/08/19 07:24:42;;;;;;;9.73;8.82;;;;;;;;;;10381925;28;20064;-83
2023/08/19 07:29:43;;;;;;;8.15;7.38;;;;;;;;;;10397099;28;20138;-77
2023/08/19 07:34:45;;;;;;;7.70;6.93;;;;;;;;;;10384138;28;20049;-77
2023/08/19 07:39:45;;;;;;;7.30;6.68;;;;;;;;;;10383288;28;20037;-80
2023/08/19 07:44:45;;;;;;;8.38;7.22;;;;;;;;;;10381907;28;20486;-79
2023/08/19 07:49:46;;;;;;;7.37;6.67;;;;;;;;;;10362776;28;20496;-77
2023/08/19 07:54:46;;;;;;;8.07;7.37;;;;;;;;;;10383838;28;20071;-76
2023/08/19 07:59:46;;;;;;;8.20;7.40;;;;;;;;;;10389465;28;20057;-80
2023/08/19 08:04:47;;;;;;;7.30;6.60;;;;;;;;;;10378712;28;20095;-78
2023/08/19 08:09:47;;;;;;;9.05;7.05;;;;;;;;;;10400416;28;20112;-83
2023/08/19 08:14:48;;;;;;;7.72;7.03;;;;;;;;;;10406572;28;20354;-79
2023/08/19 08:19:48;;;;;;;7.43;6.72;;;;;;;;;;10422314;28;20041;-81
2023/08/19 08:24:49;;;;;;;7.33;6.53;;;;;;;;;;10414797;28;20045;-81
2023/08/19 08:29:50;;;;;;;6.77;6.17;;;;;;;;;;10405059;28;20033;-83
2023/08/19 08:34:50;;;;;;;7.07;6.33;;;;;;;;;;10389661;28;20479;-79
2023/08/19 08:39:51;;;;;;;8.87;6.83;;;;;;;;;;10386933;28;20061;-81
2023/08/19 08:44:53;;;;;;;9.47;6.60;;;;;;;;;;10383808;28;20098;-81
2023/08/19 08:49:55;;;;;;;6.63;6.03;;;;;;;;;;10380687;28;20045;-81
2023/08/19 08:54:56;;;;;;;6.60;6.00;;;;;;;;;;10366381;28;20091;-81
2023/08/19 08:59:57;;;;;;;;;;;;;;;;;;10362918;28;20053;-82
2023/08/19 09:04:59;;;;;;;6.38;5.65;;;;;;;;;;10384449;28;19913;-84
2023/08/19 09:10:01;;;;;;;6.45;5.80;;;;;;;;;;10388311;28;20037;-83
2023/08/19 09:15:03;;;;;;;7.05;6.35;;;;;;;;;;10373901;28;20407;-77
2023/08/19 09:20:03;;;;;;;6.65;5.80;;;;;;;;;;10391232;28;20081;-79
2023/08/19 09:25:07;;;;;;;6.97;5.67;;;;;;;;;;10392386;28;20063;-76
2023/08/19 09:30:07;;;;;;;6.38;5.47;;;;;;;;;;10391129;28;20037;-78
2023/08/19 09:35:11;;;;;;;5.97;5.37;;;;;;;;;;10374822;28;20371;-78
2023/08/19 09:40:13;;;;;;;5.93;5.40;;;;;;;;;;10390808;28;20060;-79
2023/08/19 09:45:19;;;;;;;5.93;5.43;;;;;;;;;;10393566;28;20041;-77
2023/08/19 09:50:21;;;;;;;6.10;5.50;;;;;;;;;;10381012;28;20044;-75
2023/08/19 09:55:25;;;;;;;10.40;5.55;;;;;;;;;;10383577;28;20037;-77
2023/08/19 10:00:25;;;;;;;6.38;5.10;;;;;;;;;;10389397;28;20048;-76
2023/08/19 10:05:26;;;;;;;5.80;5.30;;;;;;;;;;10385866;28;21060;-77
2023/08/19 10:10:29;;;;;;;5.80;5.28;;;;;;;;;;10388238;28;20042;-78
2023/08/19 10:15:31;;;;;;;5.25;4.72;;;;;;;;;;10387518;28;20083;-76
2023/08/19 10:20:32;;;;;;;6.75;4.97;;;;;;;;;;10395073;28;20055;-75
2023/08/19 10:25:33;;;;;;;4.53;4.00;;;;;;;;;;10393151;28;20422;-76
2023/08/19 10:30:33;;;;;;;5.40;4.63;;;;;;;;;;10394925;28;20319;-74
2023/08/19 10:35:53;;;;;;;5.10;4.67;;;;;;;;;;10376470;28;20071;-78
2023/08/19 10:41:02;;;;;;;4.25;3.85;;;;;;;;;;10387695;28;20059;-76
2023/08/19 10:46:03;;;;;;;4.45;4.05;;;;;;;;;;10377278;28;20120;-76
2023/08/19 10:51:04;;;;;;;4.80;4.40;;;;;;;;;;10374309;28;20404;-76
2023/08/19 10:56:12;;;;;;;4.88;4.47;;;;;;;;;;10373692;28;20042;-74
2023/08/19 11:01:12;;;;;;;4.90;4.40;;;;;;;;;;10369702;28;20053;-77
2023/08/19 11:06:12;;;;;;;4.80;3.67;;;;;;;;;;10385637;28;20073;-74
2023/08/19 11:11:14;;;;;;;4.60;4.00;;;;;;;;;;10387643;28;20819;-73
2023/08/19 11:16:15;;;;;;;4.30;3.90;;;;;;;;;;10387823;28;20037;-77
2023/08/19 11:21:17;;;;;;;5.57;4.47;;;;;;;;;;10384953;28;20069;-75
2023/08/19 11:26:18;;;;;;;4.90;3.95;;;;;;;;;;10354730;28;20071;-75
2023/08/19 11:31:20;;;;;;;5.20;4.03;;;;;;;;;;10385836;28;20052;-73
2023/08/19 11:36:24;;;;;;;4.22;3.83;;;;;;;;;;10386381;28;20033;-75
2023/08/19 11:41:24;;;;;;;5.25;4.15;;;;;;;;;;10390753;28;20049;-75
2023/08/19 11:46:31;;;;;;;4.77;3.80;;;;;;;;;;10386544;28;20498;-74
2023/08/19 11:51:32;;;;;;;6.97;4.57;;;;;;;;;;10363844;28;20057;-76
2023/08/19 11:56:45;;;;;;;5.00;4.40;;;;;;;;;;10390265;28;20037;-75
2023/08/19 12:01:46;;;;;;;4.63;4.00;;;;;;;;;;10390214;28;20546;-75
2023/08/19 12:06:47;;;;;;;4.65;4.22;;;;;;;;;;10386794;28;20048;-75
2023/08/19 12:11:48;;;;;;;4.80;4.10;;;;;;;;;;10389691;28;20462;-76
2023/08/19 12:16:48;;;;;;;;;;;;;;;;;;10403812;28;20041;-76
2023/08/19 12:21:48;;;;;;;6.63;4.53;;;;;;;;;;10399252;28;20414;-76
2023/08/19 12:26:49;;;;;;;7.00;3.97;;;;;;;;;;10402107;28;20041;-77
2023/08/19 12:31:49;;;;;;;;;;;;;;;;;;10398671;28;20041;-75
2023/08/19 12:36:50;;;;;;;5.53;4.07;;;;;;;;;;10391748;28;20023;-74
2023/08/19 12:41:51;;;;;;;4.90;4.28;;;;;;;;;;10404025;28;20037;-77
2023/08/19 12:46:53;;;;;;;4.85;4.40;;;;;;;;;;10397605;28;20033;-77
2023/08/19 12:51:54;;;;;;;4.78;4.20;;;;;;;;;;10395432;28;20900;-78
2023/08/19 12:56:54;;;;;;;;;;;;;;;;;;10393823;28;20033;-77
2023/08/19 13:01:54;;;;;;;6.03;4.00;;;;;;;;;;10394304;28;20442;-77
2023/08/19 13:06:55;;;;;;;;;;;;;;;;;;10390819;28;20072;-78
2023/08/19 13:11:55;;;;;;;4.57;3.85;;;;;;;;;;10393876;28;19917;-78
2023/08/19 13:16:55;;;;;;;;;;;;;;;;;;10397007;28;20037;-78
2023/08/19 13:21:56;;;;;;;4.65;4.15;;;;;;;;;;10410208;28;19940;-78
2023/08/19 13:26:56;;;;;;;;;;;;;;;;;;10396430;28;20411;-79
2023/08/19 13:31:56;;;;;;;6.75;4.32;;;;;;;;;;10390760;28;19920;-79
2023/08/19 13:36:56;;;;;;;5.77;4.10;;;;;;;;;;10394008;28;20101;-77
2023/08/19 13:41:57;;;;;;;4.40;3.83;;;;;;;;;;10386338;28;20040;-77
2023/08/19 13:46:58;;;;;;;4.80;3.85;;;;;;;;;;10371394;28;20069;-79
2023/08/19 13:51:58;;;;;;;5.15;3.70;;;;;;;;;;10384741;28;20038;-80
2023/08/19 13:56:59;;;;;;;4.70;4.20;;;;;;;;;;10387026;28;20542;-77
2023/08/19 14:01:59;;;;;;;6.10;3.83;;;;;;;;;;10374899;28;20038;-76
2023/08/19 14:07:00;;;;;;;4.73;3.70;;;;;;;;;;10388276;28;20052;-78
2023/08/19 14:12:00;;;;;;;7.32;3.83;;;;;;;;;;10377754;28;20061;-76
2023/08/19 14:17:03;;;;;;;5.88;3.50;;;;;;;;;;10368149;28;20044;-76
2023/08/19 14:22:03;;;;;;;5.72;3.40;;;;;;;;;;10384250;28;20415;-75
2023/08/19 14:27:04;;;;;;;7.63;3.93;;;;;;;;;;10387256;28;20045;-76
2023/08/19 14:32:04;;;;;;;4.38;3.80;;;;;;;;;;10388561;28;21623;-75
2023/08/19 14:37:07;;;;;;;6.97;4.03;;;;;;;;;;10389942;28;20211;-76
2023/08/19 14:42:08;;;;;;;5.93;3.53;;;;;;;;;;10379608;28;20038;-76
2023/08/19 14:47:08;;;;;;;5.93;3.30;;;;;;;;;;10388715;28;20048;-77
2023/08/19 14:52:09;;;;;;;7.10;4.10;;;;;;;;;;10387833;28;20769;-75
2023/08/19 14:57:09;;;;;;;4.37;3.87;;;;;;;;;;10389817;28;20304;-76
2023/08/19 15:02:09;;;;;;;5.40;3.63;;;;;;;;;;10388330;28;20042;-76
2023/08/19 15:07:10;;;;;;;5.80;3.70;;;;;;;;;;10390026;28;20152;-75
2023/08/19 15:12:10;;;;;;;4.40;3.27;;;;;;;;;;10386529;28;20144;-78
2023/08/19 15:17:10;;;;;;;5.63;4.00;;;;;;;;;;10379096;28;20597;-76
2023/08/19 15:22:11;;;;;;;4.32;3.70;;;;;;;;;;10389649;28;20045;-77
2023/08/19 15:27:11;;;;;;;5.13;4.10;;;;;;;;;;10390478;28;20042;-76
2023/08/19 15:32:11;;;;;;;3.95;3.00;;;;;;;;;;10367721;28;20033;-76
2023/08/19 15:37:14;;;;;;;3.53;3.10;;;;;;;;;;10397016;28;20536;-77
2023/08/19 15:42:15;;;;;;;4.53;3.60;;;;;;;;;;10394115;28;20033;-78
2023/08/19 15:47:16;;;;;;;6.43;3.80;;;;;;;;;;10388744;28;20037;-76
2023/08/19 15:52:16;;;;;;;;;;;;;;;;;;10385573;28;20068;-77
2023/08/19 15:57:16;;;;;;;7.30;3.80;;;;;;;;;;10389490;28;19974;-76
2023/08/19 16:02:17;;;;;;;;;;;;;;;;;;10373756;28;20037;-76
2023/08/19 16:07:17;;;;;;;7.53;3.83;;;;;;;;;;10389679;28;19948;-77
2023/08/19 16:12:17;;;;;;;;;;;;;;;;;;10395198;28;20060;-77
2023/08/19 16:17:17;;;;;;;7.18;4.38;;;;;;;;;;10401327;28;19924;-75
2023/08/19 16:22:18;;;;;;;4.90;3.47;;;;;;;;;;10401197;28;20025;-76
2023/08/19 16:27:18;;;;;;;5.40;3.73;;;;;;;;;;10405552;28;20105;-76
2023/08/19 16:32:19;;;;;;;4.00;3.30;;;;;;;;;;10398623;28;20490;-78
2023/08/19 16:37:19;;;;;;;4.78;4.10;;;;;;;;;;10398085;28;20045;-77
2023/08/19 16:42:22;;;;;;;5.87;4.10;;;;;;;;;;10377615;28;20102;-76
2023/08/19 16:47:22;;;;;;;5.97;3.67;;;;;;;;;;10399505;28;20037;-77
2023/08/19 16:52:23;;;;;;;4.07;3.73;;;;;;;;;;10403924;28;20072;-76
2023/08/19 16:57:24;;;;;;;5.80;4.07;;;;;;;;;;10400037;28;20565;-77
2023/08/19 17:02:24;;;;;;;5.90;4.30;;;;;;;;;;10382349;28;20506;-76
2023/08/19 17:07:25;;;;;;;4.70;4.20;;;;;;;;;;10396604;28;20075;-76
2023/08/19 17:12:25;;;;;;;4.30;3.90;;;;;;;;;;10405933;28;20044;-78
2023/08/19 17:17:25;;;;;;;5.53;4.07;;;;;;;;;;10397942;28;20127;-79
2023/08/19 17:22:34;;;;;;;8.67;4.37;;;;;;;;;;10399343;28;20038;-78
2023/08/19 17:27:37;;;;;;;5.03;4.20;;;;;;;;;;10415729;28;20068;-79
2023/08/19 17:32:38;;;;;;;8.90;4.80;;;;;;;;;;10398480;28;20149;-76
2023/08/19 17:37:40;;;;;;;7.05;5.38;;;;;;;;;;10396346;28;20042;-77
2023/08/19 17:42:41;;;;;;;9.95;6.32;;;;;;;;;;10384048;28;20041;-77
2023/08/19 17:47:41;;;;;;;13.97;7.37;;;;;;;;;;10392756;28;20056;-78
2023/08/19 17:52:42;;;;;;;11.52;7.50;;;;;;;;;;10379712;28;20047;-77
2023/08/19 17:57:42;;;;;;;10.07;7.40;;;;;;;;;;10396431;28;20040;-77
2023/08/19 18:02:43;;;;;;;10.33;7.80;;;;;;;;;;10393449;28;20056;-79
2023/08/19 18:07:44;;;;;;;11.10;7.83;;;;;;;;;;10366005;28;20033;-79
2023/08/19 18:12:44;;;;;;;16.33;11.20;;;;;;;;;;10402527;28;20037;-76
2023/08/19 18:17:44;;;;;;;24.57;16.00;;;;;;;;;;10399469;28;20684;-78
2023/08/19 18:22:47;;;;;;;23.87;15.37;;;;;;;;;;10397962;28;20033;-77
2023/08/19 18:27:50;;;;;;;18.20;11.35;;;;;;;;;;10401494;28;20083;-74
2023/08/19 18:32:50;;;;;;;15.75;11.73;;;;;;;;;;10393877;28;20467;-77
2023/08/19 18:37:51;;;;;;;19.77;13.10;;;;;;;;;;10391658;28;20165;-77
2023/08/19 18:42:51;;;;;;;15.87;12.00;;;;;;;;;;10393278;28;20115;-78
2023/08/19 18:48:02;;;;;;;17.80;11.57;;;;;;;;;;10386538;28;20044;-79
2023/08/19 18:53:03;;;;;;;19.08;11.77;;;;;;;;;;10376373;28;20120;-75
2023/08/19 18:58:04;;;;;;;16.10;10.37;;;;;;;;;;10383077;28;20038;-74
2023/08/19 19:03:05;;;;;;;12.88;10.43;;;;;;;;;;10390434;28;20037;-76
2023/08/19 19:08:06;;;;;;;15.63;12.07;;;;;;;;;;10393128;28;20038;-75
2023/08/19 19:13:06;;;;;;;13.48;10.63;;;;;;;;;;10398914;28;20100;-77
2023/08/19 19:18:07;;;;;;;12.10;9.27;;;;;;;;;;10400796;28;20049;-77
2023/08/19 19:23:07;;;;;;;8.90;7.77;;;;;;;;;;10393889;28;20037;-78
2023/08/19 19:28:08;;;;;;;11.17;8.20;;;;;;;;;;10357312;28;20111;-78
2023/08/19 19:33:08;;;;;;;9.70;8.40;;;;;;;;;;10385987;28;20172;-77
2023/08/19 19:38:08;;;;;;;8.33;7.17;;;;;;;;;;10385263;28;20099;-76
2023/08/19 19:43:09;;;;;;;15.43;10.50;;;;;;;;;;10367065;28;20049;-77
2023/08/19 19:48:09;;;;;;;11.93;9.87;;;;;;;;;;10380875;28;20048;-73
2023/08/19 19:53:10;;;;;;;14.07;10.00;;;;;;;;;;10386154;28;20060;-74
2023/08/19 19:58:10;;;;;;;12.27;9.80;;;;;;;;;;10385375;28;20129;-73
2023/08/19 20:03:12;;;;;;;14.00;10.63;;;;;;;;;;10380844;28;20048;-76
2023/08/19 20:08:13;;;;;;;13.35;10.55;;;;;;;;;;10391733;28;20041;-76
2023/08/19 20:13:14;;;;;;;12.80;10.00;;;;;;;;;;10392145;28;20091;-79
2023/08/19 20:18:15;;;;;;;12.20;9.40;;;;;;;;;;10393103;28;20931;-76
2023/08/19 20:23:15;;;;;;;15.53;9.87;;;;;;;;;;10380938;28;20071;-87
2023/08/19 20:28:16;;;;;;;11.60;9.80;;;;;;;;;;10398410;28;20042;-84
2023/08/19 20:33:16;;;;;;;11.10;9.87;;;;;;;;;;10392566;28;20041;-84
2023/08/19 20:38:16;;;;;;;14.10;9.47;;;;;;;;;;10393795;28;20509;-84
2023/08/19 20:43:20;;;;;;;15.80;9.33;;;;;;;;;;10389915;28;20029;-83
2023/08/19 20:48:20;;;;;;;9.25;8.23;;;;;;;;;;10384653;28;20113;-80
2023/08/19 20:53:22;;;;;;;8.37;7.53;;;;;;;;;;10404383;28;20128;-84
2023/08/19 20:58:24;;;;;;;8.48;7.47;;;;;;;;;;10405885;28;20109;-84
2023/08/19 21:03:26;;;;;;;8.85;7.43;;;;;;;;;;10407198;28;20048;-82
2023/08/19 21:08:26;;;;;;;8.45;7.55;;;;;;;;;;10379620;28;20037;-83
2023/08/19 21:13:26;;;;;;;9.27;7.80;;;;;;;;;;10403489;28;20045;-83
2023/08/19 21:18:27;;;;;;;9.77;7.57;;;;;;;;;;10410203;28;20529;-83
2023/08/19 21:23:27;;;;;;;8.23;7.43;;;;;;;;;;10386902;28;20052;-82
2023/08/19 21:28:29;;;;;;;11.73;7.37;;;;;;;;;;10418912;28;20598;-82
2023/08/19 21:33:29;;;;;;;7.90;7.10;;;;;;;;;;10399063;28;20103;-83
2023/08/19 21:38:29;;;;;;;9.43;6.70;;;;;;;;;;10418054;28;20107;-84
2023/08/19 21:43:30;;;;;;;9.77;7.50;;;;;;;;;;10413442;28;20033;-82
2023/08/19 21:48:30;;;;;;;8.43;7.30;;;;;;;;;;10384247;28;20037;-83
2023/08/19 21:53:33;;;;;;;8.03;6.97;;;;;;;;;;10398445;28;20069;-83
2023/08/19 21:58:33;;;;;;;7.65;6.70;;;;;;;;;;10391241;28;20139;-83
2023/08/19 22:03:34;;;;;;;7.23;6.30;;;;;;;;;;10396572;28;20099;-84
2023/08/19 22:08:34;;;;;;;8.40;7.33;;;;;;;;;;10395442;28;20047;-85
2023/08/19 22:13:37;;;;;;;8.17;7.23;;;;;;;;;;10374725;28;20042;-87
2023/08/19 22:18:37;;;;;;;8.13;6.78;;;;;;;;;;10409191;28;20039;-80
2023/08/19 22:23:37;;;;;;;7.47;6.77;;;;;;;;;;10403782;28;20033;-88
2023/08/19 22:28:41;;;;;;;8.40;6.70;;;;;;;;;;10395307;28;20038;-81
2023/08/19 22:33:45;;;;;;;8.53;7.73;;;;;;;;;;10394938;28;20768;-82
2023/08/19 22:38:46;;;;;;;8.82;7.32;;;;;;;;;;10385324;28;20037;-82
2023/08/19 22:43:46;;;;;;;9.95;8.32;;;;;;;;;;10395145;28;20143;-85
2023/08/19 22:48:46;;;;;;;10.63;8.20;;;;;;;;;;10415831;28;20072;-84
2023/08/19 22:53:47;;;;;;;9.63;8.67;;;;;;;;;;10403426;28;20053;-82
2023/08/19 22:58:47;;;;;;;9.75;7.95;;;;;;;;;;10405181;28;20059;-81
2023/08/19 23:03:47;;;;;;;9.43;8.23;;;;;;;;;;10402540;28;20041;-82
2023/08/19 23:08:48;;;;;;;8.85;7.93;;;;;;;;;;10414993;28;20045;-84
2023/08/19 23:13:48;;;;;;;10.90;9.13;;;;;;;;;;10404318;28;20141;-80
2023/08/19 23:18:48;;;;;;;10.00;8.47;;;;;;;;;;10391609;28;20351;-83
2023/08/19 23:23:49;;;;;;;8.90;7.93;;;;;;;;;;10399441;28;20068;-85
2023/08/19 23:28:50;;;;;;;9.50;7.97;;;;;;;;;;10384356;28;20120;-85
2023/08/19 23:33:50;;;;;;;10.00;7.78;;;;;;;;;;10399356;28;20049;-87
2023/08/19 23:38:51;;;;;;;9.33;8.30;;;;;;;;;;10392270;28;20060;-83
2023/08/19 23:43:51;;;;;;;12.95;9.30;;;;;;;;;;10385937;28;20108;-83
2023/08/19 23:48:51;;;;;;;10.77;8.57;;;;;;;;;;10366795;28;20506;-82
2023/08/19 23:53:53;;;;;;;10.48;9.32;;;;;;;;;;10363027;28;20080;-80
2023/08/19 23:58:53;;;;;;;11.93;9.65;;;;;;;;;;10380524;28;20133;-82
